Terminal Aerodrome Forecast
Issued by NWS Wilmington, NC

Home | Current Version | Previous Version | Text Only | Print | Product List | Glossary On
Versions: 1 2 3 4 5 6 7 8 9 10 11 12 13 14 15 16 17 18 19
000
FTUS42 KILM 281120
TAFILM
TAF
KILM 281120Z 2812/2912 35007KT P6SM FEW080 BKN250
     FM290000 VRB02KT P6SM SCT200 BKN250=

USA.gov is the U.S. government's official web portal to all federal, state and local government web resources and services.